Time;durP1;ratioP1;P1;durP2;ratioP2;P2;SDS_P1;SDS_P2;PMS_P1;PMS_P2;Temp;Humidity;BMP_temperature;BMP_pressure;BME280_temperature;BME280_humidity;BME280_pressure;Samples;Min_cycle;Max_cycle;Signal;HPM_P1;HPM_P2
2023/02/03 00:01:57;;;;;;;17.37;11.60;;;8.80;99.90;;;;;;4878162;29;20437;-73
2023/02/03 00:04:23;;;;;;;14.50;10.27;;;8.70;99.90;;;;;;4893053;29;20228;-73
2023/02/03 00:06:49;;;;;;;15.93;10.80;;;8.80;99.90;;;;;;4923371;29;20464;-73
2023/02/03 00:09:16;;;;;;;14.07;10.87;;;8.80;99.90;;;;;;4897653;29;20489;-73
2023/02/03 00:11:44;;;;;;;15.40;10.33;;;8.80;99.90;;;;;;4896689;29;20406;-73
2023/02/03 00:14:10;;;;;;;14.50;10.50;;;8.80;99.90;;;;;;4896028;29;20535;-73
2023/02/03 00:16:36;;;;;;;15.60;10.30;;;8.80;99.90;;;;;;4897603;29;20453;-73
2023/02/03 00:19:03;;;;;;;13.27;10.57;;;8.80;99.90;;;;;;4880641;29;20426;-73
2023/02/03 00:21:32;;;;;;;14.77;10.93;;;8.80;99.90;;;;;;4896008;29;20497;-73
2023/02/03 00:24:00;;;;;;;18.37;11.00;;;8.80;99.90;;;;;;4881098;29;20449;-73
2023/02/03 00:26:28;;;;;;;14.93;10.77;;;8.80;99.90;;;;;;4895862;29;20471;-73
2023/02/03 00:29:01;;;;;;;16.13;11.73;;;8.80;99.90;;;;;;4880304;29;20533;-73
2023/02/03 00:31:27;;;;;;;17.53;11.17;;;8.80;99.90;;;;;;4896401;29;20940;-73
2023/02/03 00:33:54;;;;;;;17.60;11.30;;;8.80;99.90;;;;;;4879792;29;20544;-73
2023/02/03 00:36:21;;;;;;;15.07;10.50;;;8.80;99.90;;;;;;4865093;29;20449;-73
2023/02/03 00:38:49;;;;;;;15.63;11.53;;;8.80;99.90;;;;;;4895606;29;20566;-73
2023/02/03 00:41:16;;;;;;;14.43;10.50;;;8.80;99.90;;;;;;4896770;29;20791;-73
2023/02/03 00:43:42;;;;;;;17.07;11.00;;;8.80;99.90;;;;;;4895575;29;20537;-73
2023/02/03 00:46:10;;;;;;;13.60;10.00;;;8.80;99.90;;;;;;4921645;29;20449;-73
2023/02/03 00:48:39;;;;;;;13.00;10.07;;;8.80;99.90;;;;;;4913834;29;20463;-73
2023/02/03 00:51:07;;;;;;;15.50;10.10;;;8.80;99.90;;;;;;4895614;29;20987;-73
2023/02/03 00:53:33;;;;;;;14.67;9.80;;;8.80;99.90;;;;;;4896006;29;20474;-73
2023/02/03 00:56:03;;;;;;;14.80;10.23;;;8.80;99.90;;;;;;4895523;29;20485;-73
2023/02/03 00:58:31;;;;;;;12.90;10.40;;;8.80;99.90;;;;;;4895773;29;20430;-73
2023/02/03 01:00:57;;;;;;;12.73;9.53;;;8.80;99.90;;;;;;4894574;29;20476;-73
2023/02/03 01:03:24;;;;;;;11.50;9.50;;;8.80;99.90;;;;;;4897032;29;20519;-73
2023/02/03 01:05:50;;;;;;;13.17;9.83;;;8.80;99.90;;;;;;4895450;29;20455;-73
2023/02/03 01:08:16;;;;;;;13.00;9.60;;;8.80;99.90;;;;;;4879936;29;20479;-73
2023/02/03 01:10:44;;;;;;;15.97;10.60;;;8.80;99.90;;;;;;4895734;29;20480;-73
2023/02/03 01:13:12;;;;;;;13.77;9.50;;;8.80;99.90;;;;;;4895225;29;20983;-73
2023/02/03 01:15:47;;;;;;;15.40;10.27;;;8.80;99.90;;;;;;4904046;29;20466;-73
2023/02/03 01:18:13;;;;;;;15.43;10.90;;;8.80;99.90;;;;;;4885265;29;20519;-73
2023/02/03 01:20:43;;;;;;;11.20;9.17;;;8.90;99.90;;;;;;4865091;29;21026;-73
2023/02/03 01:23:09;;;;;;;15.90;9.20;;;8.90;99.90;;;;;;4895168;29;20950;-73
2023/02/03 01:25:35;;;;;;;15.00;9.83;;;8.80;99.90;;;;;;4895061;29;20465;-73
2023/02/03 01:28:04;;;;;;;14.40;9.47;;;8.80;99.90;;;;;;4895687;29;20436;-73
2023/02/03 01:30:30;;;;;;;12.43;9.33;;;8.90;99.90;;;;;;4896748;29;20787;-73
2023/02/03 01:32:56;;;;;;;12.70;8.27;;;8.80;99.90;;;;;;4880100;29;20979;-74
2023/02/03 01:35:27;;;;;;;17.37;10.30;;;8.90;99.90;;;;;;4895579;29;20463;-74
2023/02/03 01:37:55;;;;;;;10.63;7.90;;;8.90;99.90;;;;;;4896269;29;20473;-74
2023/02/03 01:40:21;;;;;;;15.77;9.57;;;8.90;99.90;;;;;;4879763;29;21006;-74
2023/02/03 01:42:49;;;;;;;17.73;9.63;;;8.90;99.90;;;;;;4895644;29;20438;-74
2023/02/03 01:45:18;;;;;;;14.07;8.70;;;8.90;99.90;;;;;;4898352;29;20496;-74
2023/02/03 01:47:51;;;;;;;15.27;8.40;;;8.90;99.90;;;;;;4896709;29;20843;-73
2023/02/03 01:50:32;;;;;;;14.37;7.63;;;8.90;99.90;;;;;;4880369;29;20478;-74
2023/02/03 01:53:09;;;;;;;11.87;9.00;;;8.80;99.90;;;;;;4866121;29;20873;-74
2023/02/03 01:55:40;;;;;;;12.60;8.30;;;8.90;99.90;;;;;;4891532;29;20457;-73
2023/02/03 01:58:26;;;;;;;13.33;8.70;;;8.90;99.90;;;;;;4883627;29;20463;-73
2023/02/03 02:00:54;;;;;;;13.93;8.60;;;8.90;99.90;;;;;;4898153;29;20492;-73
2023/02/03 02:03:26;;;;;;;12.90;8.30;;;8.90;99.90;;;;;;4898961;29;20428;-73
2023/02/03 02:06:04;;;;;;;8.90;7.30;;;8.90;99.90;;;;;;4882467;29;20451;-73
2023/02/03 02:08:35;;;;;;;9.80;8.13;;;8.90;99.90;;;;;;4899634;29;20452;-74
2023/02/03 02:11:01;;;;;;;13.10;8.67;;;8.90;99.90;;;;;;4883439;29;20444;-73
2023/02/03 02:13:33;;;;;;;12.77;7.97;;;8.90;99.90;;;;;;4883903;29;20818;-71
2023/02/03 02:16:13;;;;;;;8.27;7.00;;;8.90;99.90;;;;;;4899709;29;20460;-70
2023/02/03 02:19:03;;;;;;;11.13;8.30;;;8.90;99.90;;;;;;4915201;29;20455;-70
2023/02/03 02:21:58;;;;;;;10.07;7.80;;;8.90;99.90;;;;;;4899041;29;20480;-70
2023/02/03 02:24:42;;;;;;;8.97;7.50;;;8.90;99.90;;;;;;4884199;29;20437;-70
2023/02/03 02:27:18;;;;;;;13.10;8.33;;;8.90;99.90;;;;;;4899383;29;20520;-69
2023/02/03 02:30:05;;;;;;;12.20;8.40;;;8.80;99.90;;;;;;4908007;29;20432;-70
2023/02/03 02:32:53;;;;;;;12.40;8.27;;;8.90;99.90;;;;;;4916798;29;20542;-69
2023/02/03 02:35:32;;;;;;;10.27;7.40;;;8.90;99.90;;;;;;4883640;29;20979;-70
2023/02/03 02:38:13;;;;;;;9.50;6.67;;;8.90;99.90;;;;;;4899233;29;20433;-69
2023/02/03 02:40:53;;;;;;;9.10;7.30;;;8.90;99.90;;;;;;4898782;29;20448;-69
2023/02/03 02:43:32;;;;;;;11.30;8.23;;;8.90;99.90;;;;;;4899234;29;20397;-70
2023/02/03 02:46:14;;;;;;;12.27;8.00;;;8.90;99.90;;;;;;4899093;29;20440;-70
2023/02/03 02:49:06;;;;;;;11.43;7.87;;;8.90;99.90;;;;;;4899226;29;20428;-70
2023/02/03 02:51:36;;;;;;;13.87;7.60;;;8.90;99.90;;;;;;4898661;29;20442;-70
2023/02/03 02:54:08;;;;;;;14.00;7.60;;;8.90;99.90;;;;;;4906471;29;20826;-70
2023/02/03 02:56:41;;;;;;;9.70;7.30;;;8.90;99.90;;;;;;4902000;29;20847;-70
2023/02/03 02:59:08;;;;;;;8.57;6.57;;;8.90;99.90;;;;;;4901708;29;20422;-70
2023/02/03 03:01:34;;;;;;;9.23;7.10;;;8.90;99.90;;;;;;4882970;29;20504;-70
2023/02/03 03:04:06;;;;;;;10.63;7.17;;;8.90;99.90;;;;;;4883378;29;20444;-70
2023/02/03 03:06:44;;;;;;;10.40;7.80;;;8.90;99.90;;;;;;4898895;29;20541;-70
2023/02/03 03:09:24;;;;;;;8.70;7.80;;;8.90;99.90;;;;;;4883226;29;20993;-70
2023/02/03 03:12:00;;;;;;;15.50;8.90;;;8.90;99.90;;;;;;4868730;29;20406;-70
2023/02/03 03:14:33;;;;;;;13.07;7.47;;;8.90;99.90;;;;;;4898756;29;20460;-70
2023/02/03 03:17:08;;;;;;;11.07;6.90;;;8.90;99.90;;;;;;4899083;29;20441;-69
2023/02/03 03:19:38;;;;;;;8.37;7.47;;;8.90;99.90;;;;;;4883316;29;20551;-69
2023/02/03 03:22:11;;;;;;;8.87;7.97;;;8.90;99.90;;;;;;4898447;29;20942;-70
2023/02/03 03:24:48;;;;;;;9.53;7.63;;;8.90;99.90;;;;;;4899677;29;20928;-70
2023/02/03 03:27:22;;;;;;;10.40;7.57;;;8.90;99.90;;;;;;4899488;29;20447;-70
2023/02/03 03:29:53;;;;;;;9.00;7.13;;;8.90;99.90;;;;;;4898271;29;20458;-70
2023/02/03 03:32:23;;;;;;;15.83;8.60;;;8.90;99.90;;;;;;4899505;29;20414;-70
2023/02/03 03:34:51;;;;;;;9.80;7.40;;;8.90;99.90;;;;;;4898403;29;20426;-70
2023/02/03 03:37:31;;;;;;;12.53;7.47;;;8.90;99.90;;;;;;4882687;29;20933;-70
2023/02/03 03:40:14;;;;;;;13.83;7.00;;;8.90;99.90;;;;;;4909900;29;20542;-70
2023/02/03 03:43:04;;;;;;;11.03;7.30;;;8.90;99.90;;;;;;4914168;29;20437;-69
2023/02/03 03:45:51;;;;;;;8.53;7.33;;;8.90;99.90;;;;;;4913602;29;20500;-69
2023/02/03 03:48:46;;;;;;;10.23;7.67;;;8.90;99.90;;;;;;4882692;29;20426;-70
2023/02/03 03:51:33;;;;;;;11.60;7.37;;;8.90;99.90;;;;;;4898158;29;20944;-70
2023/02/03 03:54:04;;;;;;;10.63;7.03;;;8.90;99.90;;;;;;4898866;29;20417;-70
2023/02/03 03:56:59;;;;;;;10.77;7.63;;;8.90;99.90;;;;;;4898789;29;20535;-71
2023/02/03 03:59:32;;;;;;;8.73;6.93;;;8.90;99.90;;;;;;4898178;29;20539;-71
2023/02/03 04:02:03;;;;;;;12.67;7.87;;;9.00;99.90;;;;;;4897153;29;20733;-73
2023/02/03 04:04:34;;;;;;;10.03;7.70;;;9.00;99.90;;;;;;4897772;29;20416;-71
2023/02/03 04:07:02;;;;;;;9.23;7.13;;;8.90;99.90;;;;;;4896266;29;20535;-71
2023/02/03 04:09:35;;;;;;;8.10;7.13;;;8.90;99.90;;;;;;4897574;29;20460;-70
2023/02/03 04:12:02;;;;;;;12.73;8.20;;;8.90;99.90;;;;;;4897822;29;20515;-69
2023/02/03 04:14:37;;;;;;;9.97;7.27;;;8.90;99.90;;;;;;4897469;29;20478;-71
2023/02/03 04:17:03;;;;;;;9.87;7.00;;;9.00;99.90;;;;;;4880947;29;20457;-71
2023/02/03 04:19:32;;;;;;;9.83;7.20;;;9.00;99.90;;;;;;4897080;29;20489;-73
2023/02/03 04:21:58;;;;;;;8.10;6.53;;;9.00;99.90;;;;;;4897945;29;20804;-70
2023/02/03 04:24:24;;;;;;;10.10;7.00;;;8.90;99.90;;;;;;4896679;29;20485;-70
2023/02/03 04:26:50;;;;;;;9.77;7.90;;;9.00;99.90;;;;;;4896798;29;20562;-70
2023/02/03 04:29:21;;;;;;;10.47;6.20;;;8.90;99.90;;;;;;4881774;29;20426;-73
2023/02/03 04:31:47;;;;;;;13.10;6.63;;;8.90;99.90;;;;;;4898365;29;20424;-72
2023/02/03 04:34:13;;;;;;;9.77;7.50;;;9.00;99.90;;;;;;4881937;29;20437;-73
2023/02/03 04:36:44;;;;;;;7.80;6.60;;;9.00;99.90;;;;;;4897057;29;20440;-73
2023/02/03 04:39:12;;;;;;;8.90;6.50;;;9.00;99.90;;;;;;4905098;29;20427;-73
2023/02/03 04:41:39;;;;;;;10.70;7.00;;;9.00;99.90;;;;;;4916147;29;20428;-73
2023/02/03 04:44:08;;;;;;;14.10;7.17;;;9.00;99.90;;;;;;4917344;29;20396;-73
2023/02/03 04:46:34;;;;;;;10.53;6.27;;;9.00;99.90;;;;;;4900405;29;20452;-75
2023/02/03 04:49:00;;;;;;;9.23;6.40;;;9.00;99.90;;;;;;4916950;29;20439;-74
2023/02/03 04:51:28;;;;;;;9.50;5.60;;;9.00;99.90;;;;;;4915964;29;20485;-74
2023/02/03 04:53:54;;;;;;;8.20;6.00;;;9.00;99.90;;;;;;4915929;29;20400;-74
2023/02/03 04:56:22;;;;;;;8.57;6.00;;;9.00;99.90;;;;;;4885259;29;20459;-74
2023/02/03 04:58:48;;;;;;;10.73;6.13;;;9.00;99.90;;;;;;4915865;29;20414;-74
2023/02/03 05:01:14;;;;;;;9.20;6.83;;;8.90;99.90;;;;;;4915744;29;20931;-74
2023/02/03 05:03:40;;;;;;;8.83;6.10;;;9.00;99.90;;;;;;4915764;29;20484;-74
2023/02/03 05:06:09;;;;;;;9.83;6.00;;;9.00;99.90;;;;;;4915632;29;20447;-75
2023/02/03 05:08:37;;;;;;;9.00;5.30;;;9.00;99.90;;;;;;4915779;29;20401;-74
2023/02/03 05:11:03;;;;;;;6.33;5.57;;;9.00;99.90;;;;;;4916835;29;20906;-74
2023/02/03 05:13:29;;;;;;;7.07;5.73;;;9.00;99.90;;;;;;4915690;29;20418;-74
2023/02/03 05:15:55;;;;;;;7.70;5.93;;;9.00;99.90;;;;;;4916844;29;20456;-74
2023/02/03 05:18:21;;;;;;;11.97;5.50;;;9.00;99.90;;;;;;4917131;29;20455;-74
2023/02/03 05:20:50;;;;;;;7.77;5.10;;;9.00;99.90;;;;;;4919433;29;20472;-75
2023/02/03 05:23:16;;;;;;;8.00;4.77;;;9.00;99.90;;;;;;4903742;29;20495;-74
2023/02/03 05:25:43;;;;;;;6.37;4.30;;;9.00;99.90;;;;;;4918494;29;20447;-74
2023/02/03 05:28:09;;;;;;;11.20;5.70;;;9.00;99.90;;;;;;4919959;29;20847;-74
2023/02/03 05:30:35;;;;;;;7.43;5.03;;;9.00;99.90;;;;;;4919524;29;20520;-74
2023/02/03 05:33:03;;;;;;;7.20;3.97;;;9.00;99.90;;;;;;4919472;29;20431;-74
2023/02/03 05:35:29;;;;;;;9.00;5.00;;;9.00;99.90;;;;;;4920506;29;20448;-74
2023/02/03 05:37:55;;;;;;;7.70;4.20;;;9.00;99.90;;;;;;4903471;29;20409;-74
2023/02/03 05:43:06;;;;;;;7.10;4.40;;;9.00;99.90;;;;;;4920296;29;20169;-74
2023/02/03 05:45:35;;;;;;;7.67;4.10;;;9.00;99.90;;;;;;4919036;29;20809;-74
2023/02/03 05:48:01;;;;;;;5.57;4.03;;;9.00;99.90;;;;;;4887981;29;20536;-74
2023/02/03 05:50:33;;;;;;;4.67;3.70;;;9.00;99.90;;;;;;4919105;29;20408;-74
2023/02/03 05:53:11;;;;;;;5.90;4.10;;;9.00;99.90;;;;;;4904520;29;20454;-77
2023/02/03 05:55:37;;;;;;;6.63;4.03;;;9.00;99.90;;;;;;4906665;29;20568;-74
2023/02/03 05:58:03;;;;;;;11.03;4.77;;;9.00;99.90;;;;;;4900230;29;20512;-75
2023/02/03 06:00:31;;;;;;;4.73;3.43;;;9.00;99.90;;;;;;4901376;29;20477;-75
2023/02/03 06:03:02;;;;;;;7.83;4.30;;;9.00;99.90;;;;;;4901244;29;20461;-74
2023/02/03 06:05:32;;;;;;;6.50;3.87;;;9.00;99.90;;;;;;4900999;29;20505;-74
2023/02/03 06:07:58;;;;;;;6.47;3.23;;;9.00;99.90;;;;;;4900989;29;20820;-74
2023/02/03 06:10:25;;;;;;;5.20;3.50;;;9.00;99.90;;;;;;4899846;29;20472;-74
2023/02/03 06:12:51;;;;;;;7.63;3.30;;;9.00;99.90;;;;;;4884281;29;20444;-74
2023/02/03 06:15:17;;;;;;;10.90;3.13;;;9.00;99.90;;;;;;4899755;29;20448;-74
2023/02/03 06:17:48;;;;;;;8.30;3.50;;;9.00;99.90;;;;;;4884320;29;20460;-74
2023/02/03 06:20:16;;;;;;;6.63;3.10;;;9.00;99.90;;;;;;4899492;29;20445;-72
2023/02/03 06:22:42;;;;;;;4.40;3.20;;;9.00;99.90;;;;;;4899910;29;20863;-73
2023/02/03 06:25:09;;;;;;;6.40;3.63;;;9.00;99.90;;;;;;4867917;29;20581;-76
2023/02/03 06:27:35;;;;;;;6.47;3.30;;;9.00;99.90;;;;;;4915069;29;20441;-72
2023/02/03 06:30:02;;;;;;;6.33;3.37;;;9.00;99.90;;;;;;4899238;29;20907;-76
2023/02/03 06:32:28;;;;;;;6.20;4.07;;;9.00;99.90;;;;;;4900091;29;20421;-76
2023/02/03 06:34:55;;;;;;;4.00;3.20;;;9.00;99.90;;;;;;4868138;29;20428;-77
2023/02/03 06:37:26;;;;;;;5.30;3.17;;;9.10;99.90;;;;;;4899776;29;20457;-77
2023/02/03 06:39:52;;;;;;;4.63;2.63;;;9.00;99.90;;;;;;4899323;29;20448;-76
2023/02/03 06:42:20;;;;;;;7.07;3.10;;;9.00;99.90;;;;;;4899636;29;20422;-76
2023/02/03 06:44:49;;;;;;;5.10;2.93;;;9.00;99.90;;;;;;4914963;29;20896;-76
2023/02/03 06:47:15;;;;;;;9.20;2.80;;;9.00;99.90;;;;;;4900051;29;20520;-72
2023/02/03 06:49:41;;;;;;;7.20;2.93;;;9.00;99.90;;;;;;4898324;29;20457;-70
2023/02/03 06:52:07;;;;;;;4.30;2.90;;;9.10;99.90;;;;;;4882667;29;20840;-71
2023/02/03 06:54:33;;;;;;;6.30;3.03;;;9.00;99.90;;;;;;4898889;29;20429;-70
2023/02/03 06:56:59;;;;;;;5.27;2.83;;;9.00;99.90;;;;;;4883129;29;20469;-71
2023/02/03 06:59:25;;;;;;;5.30;2.73;;;9.10;99.90;;;;;;4883347;29;20959;-71
2023/02/03 07:01:58;;;;;;;8.30;2.70;;;9.00;99.90;;;;;;4898596;29;20445;-71
2023/02/03 07:04:31;;;;;;;6.70;2.90;;;9.10;99.90;;;;;;4899744;29;20838;-71
2023/02/03 07:06:57;;;;;;;3.93;2.43;;;9.00;99.90;;;;;;4903538;29;20451;-71
2023/02/03 07:09:23;;;;;;;6.50;3.20;;;9.10;99.90;;;;;;4917730;29;20429;-71
2023/02/03 07:11:50;;;;;;;6.10;2.77;;;9.10;99.90;;;;;;4918800;29;20930;-71
2023/02/03 07:14:18;;;;;;;9.60;2.87;;;9.10;99.90;;;;;;4917525;29;20412;-71
2023/02/03 07:16:44;;;;;;;4.13;2.23;;;9.10;99.90;;;;;;4886027;29;21064;-71
2023/02/03 07:19:10;;;;;;;6.43;3.13;;;9.10;99.90;;;;;;4897797;29;20516;-71
2023/02/03 07:21:36;;;;;;;6.60;2.60;;;9.10;99.90;;;;;;4881865;29;20500;-71
2023/02/03 07:24:04;;;;;;;3.50;2.50;;;9.10;99.90;;;;;;4898368;29;20952;-72
2023/02/03 07:26:30;;;;;;;6.03;3.17;;;9.10;99.90;;;;;;4929075;29;20441;-75
2023/02/03 07:28:59;;;;;;;8.27;2.50;;;9.10;99.90;;;;;;4911662;29;20464;-72
2023/02/03 07:31:28;;;;;;;8.03;2.60;;;9.10;99.90;;;;;;4884875;29;20454;-75
2023/02/03 07:33:57;;;;;;;5.77;3.00;;;9.10;99.90;;;;;;4895008;29;20450;-74
2023/02/03 07:36:26;;;;;;;8.37;2.40;;;9.10;99.90;;;;;;4897762;29;20454;-74
2023/02/03 07:38:52;;;;;;;7.47;2.50;;;9.10;99.90;;;;;;4898687;29;20425;-74
2023/02/03 07:41:18;;;;;;;3.90;2.67;;;9.10;99.90;;;;;;4901358;29;20472;-73
2023/02/03 07:43:45;;;;;;;6.20;2.70;;;9.10;99.90;;;;;;4896568;29;20971;-73
2023/02/03 07:46:11;;;;;;;4.20;2.70;;;9.10;99.90;;;;;;4897440;29;20806;-74
2023/02/03 07:48:40;;;;;;;5.93;2.87;;;9.10;99.90;;;;;;4916442;29;20905;-74
2023/02/03 07:51:06;;;;;;;5.47;2.67;;;9.10;99.90;;;;;;4911609;29;20594;-73
2023/02/03 07:53:32;;;;;;;8.40;2.63;;;9.10;99.90;;;;;;4897830;29;20489;-74
2023/02/03 07:56:03;;;;;;;4.40;2.80;;;9.10;99.90;;;;;;4897564;29;20453;-73
2023/02/03 07:58:30;;;;;;;3.90;2.87;;;9.10;99.90;;;;;;4897242;29;20461;-74
2023/02/03 08:01:08;;;;;;;2.83;2.50;;;9.10;99.90;;;;;;4896943;29;20963;-72
2023/02/03 08:03:34;;;;;;;4.17;2.90;;;9.10;99.90;;;;;;4897531;29;20912;-72
2023/02/03 08:06:00;;;;;;;8.43;3.20;;;9.10;99.90;;;;;;4897353;29;20437;-72
2023/02/03 08:08:26;;;;;;;6.47;2.70;;;9.10;99.90;;;;;;4882229;29;20465;-71
2023/02/03 08:10:55;;;;;;;5.20;2.57;;;9.10;99.90;;;;;;4897799;29;20831;-72
2023/02/03 08:13:23;;;;;;;3.37;2.33;;;9.10;99.90;;;;;;4897567;29;20873;-72
2023/02/03 08:15:49;;;;;;;4.03;2.70;;;9.10;99.90;;;;;;4897657;29;20959;-72
2023/02/03 08:18:16;;;;;;;6.37;3.10;;;9.10;99.90;;;;;;4900583;29;20475;-72
2023/02/03 08:20:42;;;;;;;5.17;2.90;;;9.10;99.90;;;;;;4900473;29;20535;-72
2023/02/03 08:23:11;;;;;;;7.13;3.33;;;9.20;99.90;;;;;;4913897;29;20978;-72
2023/02/03 08:25:37;;;;;;;6.17;3.13;;;9.10;99.90;;;;;;4916193;29;20464;-72
2023/02/03 08:28:03;;;;;;;6.10;3.10;;;9.10;99.90;;;;;;4914809;29;20424;-71
2023/02/03 08:30:29;;;;;;;6.60;2.80;;;9.10;99.90;;;;;;4912973;29;20432;-72
2023/02/03 08:32:56;;;;;;;5.10;3.40;;;9.10;99.90;;;;;;4897353;29;20437;-72
2023/02/03 08:35:26;;;;;;;9.17;3.87;;;9.10;99.90;;;;;;4882045;29;20460;-71
2023/02/03 08:37:52;;;;;;;8.90;3.63;;;9.20;99.90;;;;;;4881774;29;20433;-72
2023/02/03 08:40:19;;;;;;;8.30;3.23;;;9.20;99.90;;;;;;4898180;29;20553;-72
2023/02/03 08:42:48;;;;;;;5.10;3.07;;;9.10;99.90;;;;;;4904483;29;20476;-72
2023/02/03 08:45:14;;;;;;;3.80;3.37;;;9.10;99.90;;;;;;4896822;29;20436;-72
2023/02/03 08:47:40;;;;;;;9.03;3.40;;;9.20;99.90;;;;;;4898110;29;20465;-71
2023/02/03 08:50:07;;;;;;;5.60;3.23;;;9.20;99.90;;;;;;4881324;29;20787;-72
2023/02/03 08:52:33;;;;;;;4.43;3.50;;;9.20;99.90;;;;;;4896916;29;20485;-71
2023/02/03 08:55:00;;;;;;;5.93;3.30;;;9.20;99.90;;;;;;4881246;29;20437;-71
2023/02/03 08:57:28;;;;;;;7.00;3.50;;;9.20;99.90;;;;;;4881628;29;20457;-71
2023/02/03 08:59:54;;;;;;;7.40;4.20;;;9.20;99.90;;;;;;4912358;29;20476;-72
2023/02/03 09:02:20;;;;;;;6.93;4.00;;;9.20;99.90;;;;;;4896922;29;20398;-72
2023/02/03 09:04:47;;;;;;;6.07;3.70;;;9.20;99.90;;;;;;4881095;29;20936;-72
2023/02/03 09:07:14;;;;;;;4.10;3.43;;;9.20;99.90;;;;;;4881553;29;20456;-71
2023/02/03 09:09:40;;;;;;;6.83;3.67;;;9.20;99.90;;;;;;4896817;29;20405;-71
2023/02/03 09:12:11;;;;;;;5.47;4.30;;;9.20;99.90;;;;;;4897817;29;20449;-72
2023/02/03 09:14:38;;;;;;;6.03;4.30;;;9.20;99.90;;;;;;4915465;29;20871;-72
2023/02/03 09:17:07;;;;;;;7.77;4.77;;;9.20;99.90;;;;;;4899753;29;20453;-72
2023/02/03 09:19:33;;;;;;;7.13;3.80;;;9.20;99.90;;;;;;4881263;29;20465;-72
2023/02/03 09:21:59;;;;;;;5.60;4.80;;;9.20;99.90;;;;;;4896773;29;20445;-72
2023/02/03 09:24:25;;;;;;;5.00;4.40;;;9.20;99.90;;;;;;4896395;29;20401;-72
2023/02/03 09:26:54;;;;;;;6.80;5.27;;;9.20;99.90;;;;;;4897779;29;20442;-72
2023/02/03 09:29:22;;;;;;;5.87;4.30;;;9.20;99.90;;;;;;4881351;29;20429;-72
2023/02/03 09:31:51;;;;;;;10.20;5.30;;;9.20;99.90;;;;;;4912418;29;20916;-72
2023/02/03 09:34:19;;;;;;;8.27;5.20;;;9.20;99.90;;;;;;4897618;29;20428;-72
2023/02/03 09:36:50;;;;;;;7.33;5.60;;;9.20;99.90;;;;;;4896526;29;20453;-72
2023/02/03 09:39:19;;;;;;;10.30;5.53;;;9.20;99.90;;;;;;4897596;29;20406;-72
2023/02/03 09:42:25;;;;;;;11.17;4.90;;;9.20;99.90;;;;;;4896493;29;20472;-72
2023/02/03 09:45:00;;;;;;;8.40;5.13;;;9.20;99.90;;;;;;4827515;29;20443;-72
2023/02/03 09:47:33;;;;;;;6.03;4.90;;;9.20;99.90;;;;;;4892512;29;20432;-73
2023/02/03 09:50:03;;;;;;;9.10;5.80;;;9.20;99.90;;;;;;4895530;29;20457;-74
2023/02/03 09:52:36;;;;;;;6.70;5.53;;;9.20;99.90;;;;;;4898432;29;20477;-74
2023/02/03 09:55:12;;;;;;;7.20;5.80;;;9.20;99.90;;;;;;4904876;29;20441;-76
2023/02/03 09:58:11;;;;;;;9.00;5.87;;;9.20;99.90;;;;;;4901326;29;20444;-73
2023/02/03 10:00:43;;;;;;;11.90;6.40;;;9.20;99.90;;;;;;4866822;29;20545;-74
2023/02/03 10:03:18;;;;;;;8.37;5.93;;;9.20;99.90;;;;;;4879437;29;20449;-72
2023/02/03 10:05:50;;;;;;;11.03;6.00;;;9.20;99.90;;;;;;4906338;29;20442;-73
2023/02/03 10:08:45;;;;;;;8.73;5.53;;;9.20;99.90;;;;;;4892349;29;20823;-74
2023/02/03 10:11:35;;;;;;;12.20;5.80;;;9.20;99.90;;;;;;4878762;29;20434;-73
2023/02/03 10:14:22;;;;;;;8.30;6.57;;;9.20;99.90;;;;;;4898264;29;20428;-73
2023/02/03 10:17:22;;;;;;;12.13;6.90;;;9.20;99.90;;;;;;4872897;29;20811;-72
2023/02/03 10:19:55;;;;;;;8.27;6.10;;;9.20;99.90;;;;;;4881065;29;20465;-72
2023/02/03 10:22:28;;;;;;;9.00;6.93;;;9.20;99.90;;;;;;4899097;29;20504;-74
2023/02/03 10:24:59;;;;;;;6.80;6.10;;;9.20;99.90;;;;;;4896861;29;20497;-75
2023/02/03 10:27:31;;;;;;;13.83;6.43;;;9.20;99.90;;;;;;4892663;29;20842;-74
2023/02/03 10:30:18;;;;;;;8.57;6.93;;;9.20;99.90;;;;;;4926179;23;20514;-72
2023/02/03 10:32:58;;;;;;;7.33;6.00;;;9.20;99.90;;;;;;4930322;29;20455;-72
2023/02/03 10:35:38;;;;;;;9.27;6.57;;;9.20;99.90;;;;;;4929264;29;20461;-72
2023/02/03 10:38:08;;;;;;;9.00;7.57;;;9.20;99.90;;;;;;4908136;29;20443;-72
2023/02/03 10:40:36;;;;;;;8.57;6.87;;;9.20;99.90;;;;;;4914716;29;20863;-71
2023/02/03 10:45:50;;;;;;;10.47;7.10;;;9.20;99.90;;;;;;4918138;29;20551;-76
2023/02/03 10:48:19;;;;;;;10.43;7.60;;;9.20;99.90;;;;;;4885542;29;20458;-76
2023/02/03 10:50:49;;;;;;;8.77;7.00;;;9.20;99.90;;;;;;4917256;29;20799;-76
2023/02/03 10:53:21;;;;;;;10.97;7.43;;;9.20;99.90;;;;;;4927762;29;20794;-76
2023/02/03 10:56:01;;;;;;;9.03;7.40;;;9.20;99.90;;;;;;4899322;29;20466;-73
2023/02/03 10:58:32;;;;;;;9.73;6.87;;;9.20;99.90;;;;;;4901544;29;20497;-77
2023/02/03 11:01:12;;;;;;;10.17;7.80;;;9.20;99.90;;;;;;4912885;29;20484;-76
2023/02/03 11:03:52;;;;;;;9.63;6.87;;;9.20;99.90;;;;;;4903381;29;20447;-77
2023/02/03 11:06:20;;;;;;;8.13;7.07;;;9.20;99.90;;;;;;4900360;29;20466;-77
2023/02/03 11:08:52;;;;;;;9.07;7.10;;;9.20;99.90;;;;;;4924300;29;20994;-77
2023/02/03 11:11:26;;;;;;;13.10;7.27;;;9.20;99.90;;;;;;4900057;29;20442;-77
2023/02/03 11:14:16;;;;;;;10.43;7.90;;;9.20;99.90;;;;;;4913519;29;20494;-77
2023/02/03 11:16:42;;;;;;;8.93;7.50;;;9.20;99.90;;;;;;4931894;28;20869;-76
2023/02/03 11:19:23;;;;;;;8.93;7.03;;;9.20;99.90;;;;;;4910165;29;20476;-77
2023/02/03 11:21:50;;;;;;;9.23;7.30;;;9.20;99.90;;;;;;4908604;29;20471;-75
2023/02/03 11:24:29;;;;;;;10.20;8.20;;;9.20;99.90;;;;;;4927235;29;20475;-76
2023/02/03 11:27:03;;;;;;;8.87;7.97;;;9.30;99.90;;;;;;4934103;29;20461;-76
2023/02/03 11:29:39;;;;;;;10.20;7.60;;;9.20;99.90;;;;;;4910456;29;21135;-76
2023/02/03 11:32:36;;;;;;;12.20;7.80;;;9.20;99.90;;;;;;4915761;29;20456;-76
2023/02/03 11:35:17;;;;;;;10.00;7.03;;;9.30;99.90;;;;;;4915658;29;20459;-76
2023/02/03 11:37:49;;;;;;;10.30;8.00;;;9.30;99.90;;;;;;4918033;29;20420;-76
2023/02/03 11:40:28;;;;;;;9.33;7.07;;;9.30;99.90;;;;;;4923143;29;21014;-77
2023/02/03 11:42:54;;;;;;;9.40;7.10;;;9.30;99.90;;;;;;4926060;29;20558;-77
2023/02/03 11:45:28;;;;;;;7.90;6.77;;;9.30;99.90;;;;;;4889668;29;20552;-76
2023/02/03 11:48:12;;;;;;;9.40;7.30;;;9.30;99.90;;;;;;4915206;29;21009;-76
2023/02/03 11:50:50;;;;;;;7.70;6.97;;;9.30;99.90;;;;;;4931468;29;20463;-77
2023/02/03 11:53:41;;;;;;;10.60;7.40;;;9.30;99.90;;;;;;4926885;29;20423;-77
2023/02/03 11:56:31;;;;;;;9.27;7.67;;;9.30;99.90;;;;;;4926278;29;20511;-75
2023/02/03 11:59:09;;;;;;;8.53;6.50;;;9.30;99.90;;;;;;4912744;29;20434;-77
2023/02/03 12:01:49;;;;;;;8.37;6.37;;;9.30;99.90;;;;;;4910694;29;20496;-78
2023/02/03 12:04:34;;;;;;;8.03;6.33;;;9.30;99.90;;;;;;4913348;29;20475;-77
2023/02/03 12:07:09;;;;;;;10.80;6.60;;;9.30;99.90;;;;;;4893724;29;20461;-77
2023/02/03 12:09:48;;;;;;;6.80;5.70;;;9.30;99.90;;;;;;4916042;29;20409;-76
2023/02/03 12:12:22;;;;;;;9.93;6.50;;;9.30;99.90;;;;;;4908365;29;20554;-77
2023/02/03 12:15:29;;;;;;;12.67;6.10;;;9.30;99.90;;;;;;4908310;29;20437;-76
2023/02/03 12:18:04;;;;;;;7.13;6.40;;;9.30;99.90;;;;;;4912806;29;20429;-78
2023/02/03 12:20:46;;;;;;;8.10;5.70;;;9.30;99.90;;;;;;4916651;29;20476;-73
2023/02/03 12:23:44;;;;;;;7.93;5.40;;;9.30;99.90;;;;;;4927153;29;20451;-73
2023/02/03 12:26:20;;;;;;;8.60;5.70;;;9.30;99.90;;;;;;4928998;29;20460;-74
2023/02/03 12:29:06;;;;;;;8.97;5.30;;;9.30;99.90;;;;;;4912427;29;20926;-74
2023/02/03 12:31:40;;;;;;;12.33;6.07;;;9.40;99.90;;;;;;4931234;29;20474;-72
2023/02/03 12:34:09;;;;;;;7.97;5.20;;;9.40;99.90;;;;;;4915193;29;20525;-73
2023/02/03 12:36:48;;;;;;;9.63;5.77;;;9.40;99.90;;;;;;4900457;29;20500;-72
2023/02/03 12:39:37;;;;;;;7.90;4.63;;;9.40;99.90;;;;;;4884448;29;20427;-73
2023/02/03 12:42:20;;;;;;;9.13;5.40;;;9.40;99.90;;;;;;4912904;29;20471;-73
2023/02/03 12:45:17;;;;;;;6.27;4.90;;;9.40;99.90;;;;;;4915976;29;20444;-72
2023/02/03 12:47:45;;;;;;;5.83;5.17;;;9.40;99.90;;;;;;4914106;29;20839;-72
2023/02/03 12:50:22;;;;;;;8.90;5.33;;;9.40;99.90;;;;;;4898910;29;20970;-73
2023/02/03 12:53:00;;;;;;;7.80;5.60;;;9.40;99.90;;;;;;4914173;29;20530;-73
2023/02/03 12:55:50;;;;;;;7.47;5.80;;;9.40;99.90;;;;;;4905076;29;20806;-74
2023/02/03 12:58:27;;;;;;;8.37;5.40;;;9.40;99.90;;;;;;4900123;29;20547;-73
2023/02/03 13:01:02;;;;;;;9.10;4.73;;;9.40;99.90;;;;;;4899377;29;20465;-73
2023/02/03 13:03:57;;;;;;;6.73;5.10;;;9.40;99.90;;;;;;4913118;29;20495;-73
2023/02/03 13:06:44;;;;;;;10.93;5.30;;;9.40;99.90;;;;;;4902158;29;20463;-74
2023/02/03 13:09:37;;;;;;;10.20;5.20;;;9.40;99.90;;;;;;4928679;29;20421;-71
2023/02/03 13:12:11;;;;;;;9.27;4.70;;;9.40;99.90;;;;;;4927681;29;20461;-73
2023/02/03 13:14:43;;;;;;;7.13;5.70;;;9.50;99.90;;;;;;4926424;29;20420;-72
2023/02/03 13:17:33;;;;;;;7.30;5.40;;;9.40;99.90;;;;;;4914084;29;20569;-74
2023/02/03 13:20:04;;;;;;;13.80;4.93;;;9.50;99.90;;;;;;4897364;29;20499;-73
2023/02/03 13:22:33;;;;;;;6.70;4.57;;;9.50;99.90;;;;;;4907728;29;20423;-73
2023/02/03 13:25:13;;;;;;;7.00;5.40;;;9.50;99.90;;;;;;4896313;29;20432;-72